Time;durP1;ratioP1;P1;durP2;ratioP2;P2;SDS_P1;SDS_P2;PMS_P1;PMS_P2;Temp;Humidity;BMP_temperature;BMP_pressure;BME280_temperature;BME280_humidity;BME280_pressure;Samples;Min_cycle;Max_cycle;Signal;HPM_P1;HPM_P2
2021/12/28 00:42:08;;;;;;;93.53;38.10;;;4.80;99.90;;;;;;4773370;29;20055;-88
2021/12/28 00:44:34;;;;;;;107.07;38.88;;;4.90;99.90;;;;;;4755016;30;21534;-90
2021/12/28 00:47:00;;;;;;;110.95;40.65;;;4.90;99.90;;;;;;4744433;30;20051;-89
2021/12/28 00:49:26;;;;;;;94.50;40.85;;;4.90;99.90;;;;;;4735715;30;20338;-91
2021/12/28 00:51:52;;;;;;;107.47;40.67;;;5.00;99.90;;;;;;4726431;30;20046;-90
2021/12/28 00:54:18;;;;;;;100.57;41.10;;;5.00;99.90;;;;;;4755405;29;20412;-91
2021/12/28 00:56:44;;;;;;;92.72;39.95;;;5.00;99.90;;;;;;4755958;30;20035;-90
2021/12/28 00:59:10;;;;;;;109.05;43.47;;;5.00;99.90;;;;;;4726336;30;20039;-89
2021/12/28 01:01:35;;;;;;;106.45;44.17;;;5.10;99.90;;;;;;4743721;30;20316;-89
2021/12/28 01:04:01;;;;;;;111.47;43.20;;;5.10;99.90;;;;;;4741564;30;20530;-90
2021/12/28 01:06:27;;;;;;;113.95;45.42;;;5.20;99.90;;;;;;4753480;30;20140;-89
2021/12/28 01:08:53;;;;;;;119.38;46.47;;;5.20;99.90;;;;;;4726936;30;20488;-89
2021/12/28 01:11:19;;;;;;;116.50;45.63;;;5.20;99.90;;;;;;4727315;30;20484;-91
2021/12/28 01:13:45;;;;;;;136.32;47.67;;;5.20;99.90;;;;;;4742311;30;20236;-90
2021/12/28 01:16:13;;;;;;;144.65;49.00;;;5.30;99.90;;;;;;4736466;30;20409;-90
2021/12/28 01:18:40;;;;;;;121.32;47.25;;;5.30;99.90;;;;;;4744066;30;20046;-91
2021/12/28 01:21:07;;;;;;;174.30;51.15;;;5.30;99.90;;;;;;4770963;29;20040;-89
2021/12/28 01:23:33;;;;;;;139.48;49.95;;;5.40;99.90;;;;;;4732776;30;20051;-88
2021/12/28 01:25:59;;;;;;;156.18;51.03;;;5.40;99.90;;;;;;4776666;29;20057;-90
2021/12/28 01:28:24;;;;;;;145.25;49.70;;;5.40;99.90;;;;;;4745815;30;20043;-90
2021/12/28 01:30:50;;;;;;;157.98;52.70;;;5.50;99.90;;;;;;4757670;29;20450;-90
2021/12/28 01:33:16;;;;;;;174.48;49.78;;;5.50;99.90;;;;;;4769962;29;20048;-91
2021/12/28 01:35:42;;;;;;;183.63;55.08;;;5.50;99.90;;;;;;4724395;30;20133;-90
2021/12/28 01:38:08;;;;;;;167.63;51.92;;;5.50;99.90;;;;;;4754254;30;20055;-90
2021/12/28 01:40:40;;;;;;;170.43;52.03;;;5.50;99.90;;;;;;4743270;30;20040;-89
2021/12/28 01:43:17;;;;;;;161.60;53.17;;;5.50;99.90;;;;;;4749157;30;20443;-88
2021/12/28 01:45:47;;;;;;;199.85;53.70;;;5.60;99.90;;;;;;4742798;30;20048;-91
2021/12/28 01:48:21;;;;;;;175.48;54.15;;;5.60;99.90;;;;;;4787502;29;20126;-90
2021/12/28 01:50:50;;;;;;;236.40;57.28;;;5.60;99.90;;;;;;4772018;29;20058;-90
2021/12/28 01:53:17;;;;;;;328.17;61.20;;;5.70;99.90;;;;;;4756584;30;20420;-88
2021/12/28 01:55:47;;;;;;;209.55;57.30;;;5.70;99.90;;;;;;4770618;29;20300;-89
2021/12/28 01:58:13;;;;;;;204.65;58.28;;;5.70;99.90;;;;;;4756499;30;20353;-91
2021/12/28 02:00:43;;;;;;;228.45;60.63;;;5.80;99.90;;;;;;4745088;30;20078;-91
2021/12/28 02:03:11;;;;;;;228.05;58.72;;;5.80;99.90;;;;;;4759298;30;20143;-92
2021/12/28 02:05:38;;;;;;;274.38;59.88;;;5.80;99.90;;;;;;4755816;30;20048;-91
2021/12/28 02:08:05;;;;;;;275.15;61.15;;;5.80;99.90;;;;;;4774562;29;20048;-91
2021/12/28 02:10:32;;;;;;;268.30;59.78;;;5.80;99.90;;;;;;4766281;30;20044;-90
2021/12/28 02:12:59;;;;;;;209.95;56.40;;;5.80;99.90;;;;;;4757489;30;20517;-90
2021/12/28 02:15:25;;;;;;;245.25;58.95;;;5.80;99.90;;;;;;4738937;30;20060;-90
2021/12/28 02:17:51;;;;;;;260.33;56.88;;;5.80;99.90;;;;;;4749445;30;20075;-92
2021/12/28 02:20:19;;;;;;;269.95;57.60;;;5.80;99.90;;;;;;4744479;30;20083;-91
2021/12/28 02:22:45;;;;;;;327.33;59.80;;;5.80;99.90;;;;;;4736128;30;20039;-90
2021/12/28 02:25:13;;;;;;;256.20;57.15;;;5.80;99.90;;;;;;4773927;29;20071;-90
2021/12/28 02:27:40;;;;;;;264.13;56.58;;;5.80;99.90;;;;;;4743138;30;20097;-91
2021/12/28 02:30:11;;;;;;;320.80;61.00;;;5.80;99.90;;;;;;4735729;30;20082;-90
2021/12/28 02:32:39;;;;;;;263.07;56.47;;;5.90;99.90;;;;;;4766865;29;20046;-91
2021/12/28 02:35:11;;;;;;;292.52;58.72;;;5.90;99.90;;;;;;4740352;30;20066;-90
2021/12/28 02:37:37;;;;;;;254.88;57.60;;;5.90;99.90;;;;;;4750873;30;20588;-90
2021/12/28 02:40:05;;;;;;;226.45;56.53;;;5.90;99.90;;;;;;4740806;30;20120;-90
2021/12/28 02:42:31;;;;;;;283.75;59.90;;;5.90;99.90;;;;;;4740896;30;20461;-91
2021/12/28 02:45:02;;;;;;;248.68;59.13;;;5.90;99.90;;;;;;4751440;30;20288;-91
2021/12/28 02:47:29;;;;;;;395.27;62.97;;;5.90;99.90;;;;;;4778667;29;20523;-91
2021/12/28 02:49:55;;;;;;;219.23;55.40;;;5.90;99.90;;;;;;4741567;30;20043;-89
2021/12/28 02:52:21;;;;;;;256.60;59.25;;;6.00;99.90;;;;;;4750512;29;20516;-89
2021/12/28 02:54:47;;;;;;;283.80;58.85;;;6.00;99.90;;;;;;4754605;29;20043;-89
2021/12/28 02:57:13;;;;;;;231.40;57.58;;;6.00;99.90;;;;;;4754993;30;20051;-89
2021/12/28 02:59:49;;;;;;;245.63;60.35;;;6.10;99.90;;;;;;4752884;30;20438;-88
2021/12/28 03:02:16;;;;;;;238.73;59.97;;;6.10;99.90;;;;;;4753724;30;20396;-88
2021/12/28 03:04:43;;;;;;;272.30;62.72;;;6.10;99.90;;;;;;4772170;29;20064;-88
2021/12/28 03:07:09;;;;;;;326.60;61.25;;;6.10;99.90;;;;;;4785703;29;20044;-91
2021/12/28 03:09:36;;;;;;;262.70;60.47;;;6.20;99.90;;;;;;4743532;30;20050;-88
2021/12/28 03:12:04;;;;;;;232.25;60.42;;;6.20;99.90;;;;;;4757662;30;20147;-89
2021/12/28 03:14:29;;;;;;;239.68;59.50;;;6.20;99.90;;;;;;4755014;29;20055;-89
2021/12/28 03:16:55;;;;;;;248.88;59.35;;;6.30;99.90;;;;;;4742001;30;20066;-88
2021/12/28 03:19:21;;;;;;;257.33;59.25;;;6.30;99.90;;;;;;4728806;30;20085;-88
2021/12/28 03:21:47;;;;;;;270.80;59.08;;;6.30;99.90;;;;;;4770930;29;20481;-90
2021/12/28 03:24:13;;;;;;;279.98;59.05;;;6.30;99.90;;;;;;4760869;29;20125;-88
2021/12/28 03:26:39;;;;;;;230.65;58.95;;;6.40;99.90;;;;;;4755565;30;20083;-87
2021/12/28 03:29:05;;;;;;;312.73;61.50;;;6.30;99.90;;;;;;4739706;30;20135;-90
2021/12/28 03:31:31;;;;;;;241.15;56.70;;;6.40;99.90;;;;;;4754586;30;20130;-90
2021/12/28 03:33:58;;;;;;;240.93;56.85;;;6.40;99.90;;;;;;4748059;30;20059;-91
2021/12/28 03:36:28;;;;;;;241.00;57.28;;;6.40;99.90;;;;;;4756283;29;20039;-91
2021/12/28 03:38:55;;;;;;;218.18;55.13;;;6.40;99.90;;;;;;4754402;30;20040;-90
2021/12/28 03:41:23;;;;;;;239.88;56.25;;;6.40;99.90;;;;;;4743484;30;20454;-90
2021/12/28 03:43:51;;;;;;;258.17;54.13;;;6.40;99.90;;;;;;4766163;29;20095;-90
2021/12/28 03:46:18;;;;;;;212.75;54.92;;;6.40;99.90;;;;;;4764250;30;20587;-90
2021/12/28 03:48:44;;;;;;;330.23;58.50;;;6.40;99.90;;;;;;4747657;30;20142;-89
2021/12/28 03:51:11;;;;;;;218.40;55.53;;;6.30;99.90;;;;;;4736294;30;20112;-89
2021/12/28 03:53:36;;;;;;;249.63;58.00;;;6.30;99.90;;;;;;4734960;30;20052;-91
2021/12/28 03:56:05;;;;;;;401.15;59.83;;;6.30;99.90;;;;;;4726725;30;20050;-89
2021/12/28 03:58:31;;;;;;;229.35;52.70;;;6.30;99.90;;;;;;4771795;29;20048;-90
2021/12/28 04:00:57;;;;;;;344.33;58.33;;;6.20;99.90;;;;;;4730999;30;20537;-91
2021/12/28 04:03:23;;;;;;;357.42;57.30;;;6.20;99.90;;;;;;4744567;30;20114;-91
2021/12/28 04:05:48;;;;;;;356.20;56.22;;;6.10;99.90;;;;;;4760562;30;20044;-90
2021/12/28 04:08:20;;;;;;;469.05;61.88;;;6.10;99.90;;;;;;4763183;30;20048;-90
2021/12/28 04:11:13;;;;;;;477.00;59.47;;;6.10;99.90;;;;;;4733843;30;20094;-90
2021/12/28 04:13:39;;;;;;;455.23;57.37;;;6.10;99.90;;;;;;4768158;30;20143;-90
2021/12/28 04:16:05;;;;;;;472.05;56.47;;;6.10;99.90;;;;;;4753007;30;20320;-88
2021/12/28 04:18:33;;;;;;;324.25;50.45;;;6.10;99.90;;;;;;4742789;30;20039;-89
2021/12/28 04:20:59;;;;;;;400.42;52.08;;;6.10;99.90;;;;;;4766750;30;20461;-87
2021/12/28 04:23:24;;;;;;;257.80;46.85;;;6.00;99.90;;;;;;4764402;30;20055;-92
2021/12/28 04:25:50;;;;;;;378.60;51.42;;;6.00;99.90;;;;;;4761995;29;20079;-90
2021/12/28 04:28:16;;;;;;;288.90;48.25;;;6.00;99.90;;;;;;4739638;30;20070;-90
2021/12/28 04:30:42;;;;;;;235.60;47.38;;;6.00;99.90;;;;;;4755917;29;20793;-90
2021/12/28 04:33:08;;;;;;;336.63;50.83;;;6.00;99.90;;;;;;4766260;29;20057;-91
2021/12/28 04:35:34;;;;;;;325.10;51.17;;;5.90;99.90;;;;;;4756172;29;20048;-90
2021/12/28 04:38:00;;;;;;;308.60;48.22;;;6.00;99.90;;;;;;4754430;30;20071;-91
2021/12/28 04:40:26;;;;;;;273.27;46.28;;;5.90;99.90;;;;;;4743812;30;20481;-91
2021/12/28 04:42:52;;;;;;;211.50;45.97;;;6.00;99.90;;;;;;4785833;29;20093;-91
2021/12/28 04:45:18;;;;;;;197.93;43.25;;;6.00;99.90;;;;;;4723081;30;20059;-90
2021/12/28 04:47:44;;;;;;;182.73;43.83;;;6.00;99.90;;;;;;4740765;30;20043;-90
2021/12/28 04:50:11;;;;;;;193.45;43.78;;;6.00;99.90;;;;;;4740311;30;20051;-91
2021/12/28 04:52:39;;;;;;;263.48;46.22;;;6.00;99.90;;;;;;4754459;29;20065;-91
2021/12/28 04:55:09;;;;;;;231.32;45.40;;;6.00;99.90;;;;;;4751073;30;21116;-90
2021/12/28 04:57:35;;;;;;;187.10;45.38;;;6.00;99.90;;;;;;4739472;30;20127;-91
2021/12/28 05:00:03;;;;;;;242.95;45.35;;;6.10;99.90;;;;;;4756062;30;20067;-91
2021/12/28 05:02:29;;;;;;;155.48;42.83;;;6.10;99.90;;;;;;4746672;30;20519;-91
2021/12/28 05:04:55;;;;;;;163.30;42.42;;;6.10;99.90;;;;;;4757782;30;20443;-91
2021/12/28 05:07:20;;;;;;;183.02;42.28;;;6.10;99.90;;;;;;4739986;30;20059;-90
2021/12/28 05:09:46;;;;;;;127.57;37.28;;;6.10;99.90;;;;;;4774192;29;20048;-91
2021/12/28 05:12:12;;;;;;;159.13;38.30;;;6.00;99.90;;;;;;4724862;30;20051;-91
2021/12/28 05:14:41;;;;;;;192.70;37.88;;;6.10;99.90;;;;;;4738503;30;20046;-91
2021/12/28 05:17:07;;;;;;;115.38;37.78;;;6.10;99.90;;;;;;4770680;29;20047;-91
2021/12/28 05:19:33;;;;;;;147.75;38.08;;;6.00;99.90;;;;;;4725355;30;20036;-90
2021/12/28 05:21:59;;;;;;;157.02;38.55;;;6.00;99.90;;;;;;4744226;30;20389;-90
2021/12/28 05:24:25;;;;;;;114.60;35.58;;;6.00;99.90;;;;;;4729186;30;20054;-88
2021/12/28 05:26:52;;;;;;;122.68;34.90;;;6.00;99.90;;;;;;4740770;30;20254;-91
2021/12/28 05:29:18;;;;;;;118.38;35.90;;;6.10;99.90;;;;;;4753396;29;20050;-91
2021/12/28 05:31:44;;;;;;;117.57;35.63;;;6.00;99.90;;;;;;4751334;29;20071;-90
2021/12/28 05:34:10;;;;;;;140.70;37.10;;;6.10;99.90;;;;;;4759278;30;20141;-90
2021/12/28 05:36:36;;;;;;;120.10;35.75;;;6.10;99.90;;;;;;4727479;30;20385;-90
2021/12/28 05:39:03;;;;;;;116.70;33.90;;;6.10;99.90;;;;;;4730365;30;20292;-91
2021/12/28 05:41:29;;;;;;;131.35;33.33;;;6.10;99.90;;;;;;4754199;30;20537;-90
2021/12/28 05:43:55;;;;;;;91.20;32.22;;;6.10;99.90;;;;;;4740732;30;20051;-90
2021/12/28 05:46:20;;;;;;;95.32;31.73;;;6.10;99.90;;;;;;4739497;30;20130;-91
2021/12/28 05:48:47;;;;;;;101.40;32.30;;;6.10;99.90;;;;;;4729402;30;20109;-91
2021/12/28 05:51:14;;;;;;;122.28;33.13;;;6.10;99.90;;;;;;4760056;30;20100;-91
2021/12/28 05:53:40;;;;;;;123.70;31.70;;;6.00;99.90;;;;;;4743284;30;20142;-91
2021/12/28 05:56:06;;;;;;;94.57;31.08;;;6.00;99.90;;;;;;4733315;30;20119;-91
2021/12/28 05:58:32;;;;;;;90.28;29.25;;;6.00;99.90;;;;;;4731235;30;20048;-91
2021/12/28 06:01:01;;;;;;;93.00;30.02;;;6.00;99.90;;;;;;4746900;30;20445;-90
2021/12/28 06:03:27;;;;;;;102.55;28.13;;;6.00;99.90;;;;;;4760302;30;20504;-91
2021/12/28 06:05:53;;;;;;;98.63;29.58;;;5.90;99.90;;;;;;4772205;29;20416;-90
2021/12/28 06:08:18;;;;;;;93.47;29.60;;;6.00;99.90;;;;;;4728972;30;20131;-90
2021/12/28 06:10:44;;;;;;;81.93;28.75;;;5.90;99.90;;;;;;4773857;29;20137;-91
2021/12/28 06:13:10;;;;;;;90.35;29.15;;;5.90;99.90;;;;;;4730048;30;20190;-90
2021/12/28 06:15:35;;;;;;;92.80;28.48;;;5.90;99.90;;;;;;4731609;30;20040;-90
2021/12/28 06:18:01;;;;;;;92.00;27.45;;;5.90;99.90;;;;;;4753916;30;20052;-89
2021/12/28 06:20:27;;;;;;;89.60;28.08;;;5.80;99.90;;;;;;4740341;30;20198;-90
2021/12/28 06:22:53;;;;;;;97.38;27.60;;;5.80;99.90;;;;;;4741638;30;20540;-89
2021/12/28 06:25:19;;;;;;;81.40;27.50;;;5.80;99.90;;;;;;4746532;30;20052;-90
2021/12/28 06:27:45;;;;;;;81.78;27.63;;;5.70;99.90;;;;;;4759152;30;20534;-91
2021/12/28 06:30:11;;;;;;;92.90;28.92;;;5.70;99.90;;;;;;4740354;30;20449;-90
2021/12/28 06:32:36;;;;;;;111.40;28.52;;;5.80;99.90;;;;;;4748297;30;20036;-90
2021/12/28 06:35:03;;;;;;;96.18;27.30;;;5.70;99.90;;;;;;4758282;30;20070;-91
2021/12/28 06:37:29;;;;;;;92.97;29.08;;;5.70;99.90;;;;;;4758329;30;20035;-90
2021/12/28 06:39:54;;;;;;;87.85;30.30;;;5.80;99.90;;;;;;4735523;30;20502;-91
2021/12/28 06:42:20;;;;;;;85.18;28.23;;;5.70;99.90;;;;;;4744852;30;20123;-91
2021/12/28 06:44:47;;;;;;;89.20;29.23;;;5.70;99.90;;;;;;4745349;30;20047;-91
2021/12/28 06:47:13;;;;;;;77.70;27.33;;;5.70;99.90;;;;;;4745097;30;20182;-91
2021/12/28 06:49:39;;;;;;;75.25;26.25;;;5.70;99.90;;;;;;4751750;30;20040;-90
2021/12/28 06:52:06;;;;;;;76.00;26.73;;;5.70;99.90;;;;;;4760418;30;20045;-90
2021/12/28 06:54:36;;;;;;;76.53;26.90;;;5.70;99.90;;;;;;4764248;30;20516;-90
2021/12/28 06:57:08;;;;;;;79.70;27.20;;;5.70;99.90;;;;;;4761233;30;20553;-89
2021/12/28 06:59:43;;;;;;;77.72;26.52;;;5.70;99.90;;;;;;4767445;30;20071;-91
2021/12/28 07:02:10;;;;;;;72.25;26.85;;;5.70;99.90;;;;;;4760099;30;20515;-90
2021/12/28 07:04:36;;;;;;;71.43;25.75;;;5.70;99.90;;;;;;4747898;30;20476;-90
2021/12/28 07:07:03;;;;;;;81.13;23.98;;;5.70;99.90;;;;;;4793418;29;20063;-91
2021/12/28 07:09:28;;;;;;;75.15;24.38;;;5.70;99.90;;;;;;4762235;30;20403;-91
2021/12/28 07:11:54;;;;;;;73.00;25.25;;;5.70;99.90;;;;;;4732311;30;20078;-90
2021/12/28 07:14:20;;;;;;;73.57;25.63;;;5.70;99.90;;;;;;4763125;30;20126;-90
2021/12/28 07:16:46;;;;;;;68.15;22.80;;;5.70;99.90;;;;;;4734696;30;20426;-90
2021/12/28 07:19:12;;;;;;;69.75;24.25;;;5.70;99.90;;;;;;4735752;30;20163;-90
2021/12/28 07:21:38;;;;;;;57.95;22.75;;;5.70;99.90;;;;;;4737213;30;20101;-90
2021/12/28 07:24:09;;;;;;;68.65;23.33;;;5.80;99.90;;;;;;4746089;30;20051;-90
2021/12/28 07:26:36;;;;;;;73.55;22.38;;;5.70;99.90;;;;;;4761486;30;20051;-90
2021/12/28 07:29:03;;;;;;;75.20;23.50;;;5.70;99.90;;;;;;4747453;30;20043;-89
2021/12/28 07:31:29;;;;;;;68.03;23.05;;;5.70;99.90;;;;;;4748809;30;20355;-90
2021/12/28 07:33:55;;;;;;;67.88;22.75;;;5.70;99.90;;;;;;4732547;30;20052;-91
2021/12/28 07:36:20;;;;;;;59.05;21.73;;;5.80;99.90;;;;;;4778154;30;20074;-90
2021/12/28 07:38:47;;;;;;;59.55;21.70;;;5.80;99.90;;;;;;4772401;29;20043;-89
2021/12/28 07:41:13;;;;;;;58.92;21.35;;;5.80;99.90;;;;;;4733219;30;20051;-88
2021/12/28 07:43:39;;;;;;;51.58;20.63;;;5.90;99.90;;;;;;4738850;30;20036;-86
2021/12/28 07:46:04;;;;;;;59.35;21.83;;;5.90;99.90;;;;;;4745680;30;20060;-88
2021/12/28 07:48:30;;;;;;;50.45;19.33;;;5.90;99.90;;;;;;4736745;30;20052;-90
2021/12/28 07:50:57;;;;;;;45.20;18.98;;;5.90;99.90;;;;;;4751397;30;20086;-89
2021/12/28 07:53:23;;;;;;;46.10;17.90;;;5.90;99.90;;;;;;4747108;30;20052;-88
2021/12/28 07:55:48;;;;;;;45.75;17.00;;;6.00;99.90;;;;;;4757652;29;20059;-88
2021/12/28 07:58:14;;;;;;;46.45;17.27;;;6.00;99.90;;;;;;4719764;30;20047;-89
2021/12/28 08:00:40;;;;;;;45.55;17.05;;;6.00;99.90;;;;;;4743119;30;20051;-86
2021/12/28 08:03:06;;;;;;;42.28;17.30;;;6.00;99.90;;;;;;4734507;30;20122;-87
2021/12/28 08:05:35;;;;;;;48.22;16.27;;;6.00;99.90;;;;;;4749965;30;20052;-85
2021/12/28 08:08:01;;;;;;;42.05;16.67;;;6.00;99.90;;;;;;4749314;30;20047;-88
2021/12/28 08:10:27;;;;;;;46.42;16.63;;;6.10;99.90;;;;;;4763883;30;20466;-86
2021/12/28 08:12:54;;;;;;;41.25;15.65;;;6.10;99.90;;;;;;4777140;29;20501;-87
2021/12/28 08:15:21;;;;;;;40.35;15.43;;;6.20;99.90;;;;;;4762868;30;20437;-87
2021/12/28 08:17:47;;;;;;;36.95;14.35;;;6.20;99.90;;;;;;4748308;30;20154;-88
2021/12/28 08:20:15;;;;;;;45.20;14.43;;;6.20;99.90;;;;;;4762168;30;20043;-87
2021/12/28 08:22:42;;;;;;;45.75;14.50;;;6.20;99.90;;;;;;4778371;29;20326;-87
2021/12/28 08:25:10;;;;;;;39.85;14.10;;;6.30;99.90;;;;;;4766132;30;20047;-87
2021/12/28 08:27:36;;;;;;;37.83;13.38;;;6.30;99.90;;;;;;4788968;29;20047;-87
2021/12/28 08:30:03;;;;;;;36.78;13.55;;;6.30;99.90;;;;;;4766298;29;20051;-87
2021/12/28 08:32:29;;;;;;;44.20;14.20;;;6.30;99.90;;;;;;4777647;29;20067;-88
2021/12/28 08:34:55;;;;;;;40.92;13.90;;;6.30;99.90;;;;;;4760440;30;20074;-85
2021/12/28 08:37:21;;;;;;;37.40;13.82;;;6.30;99.90;;;;;;4747107;30;20151;-86
2021/12/28 08:39:47;;;;;;;39.33;13.95;;;6.30;99.90;;;;;;4743886;30;20072;-87
2021/12/28 08:42:13;;;;;;;33.35;12.52;;;6.30;99.90;;;;;;4736320;30;20496;-88
2021/12/28 08:44:39;;;;;;;34.38;13.27;;;6.30;99.90;;;;;;4742198;30;20048;-85
2021/12/28 08:47:05;;;;;;;33.92;12.32;;;6.30;99.90;;;;;;4775318;29;20082;-88
2021/12/28 08:49:30;;;;;;;36.55;12.50;;;6.30;99.90;;;;;;4759875;30;20036;-87
2021/12/28 08:51:56;;;;;;;33.08;12.18;;;6.40;99.90;;;;;;4773220;29;20116;-87
2021/12/28 08:54:22;;;;;;;32.42;11.93;;;6.40;99.90;;;;;;4755152;30;20513;-88
2021/12/28 08:56:50;;;;;;;35.38;10.90;;;6.40;99.90;;;;;;4759297;30;20105;-87
2021/12/28 08:59:16;;;;;;;33.08;11.48;;;6.40;99.90;;;;;;4788144;29;20171;-86
2021/12/28 09:01:42;;;;;;;35.33;11.80;;;6.40;99.90;;;;;;4748548;30;20064;-87
2021/12/28 09:04:08;;;;;;;27.52;10.68;;;6.40;99.90;;;;;;4756234;30;20048;-86
2021/12/28 09:06:34;;;;;;;30.42;11.35;;;6.40;99.90;;;;;;4769440;29;20044;-87
2021/12/28 09:09:00;;;;;;;31.45;11.13;;;6.40;99.90;;;;;;4730135;30;20382;-86
2021/12/28 09:11:25;;;;;;;32.53;11.63;;;6.40;99.90;;;;;;4786616;29;20051;-85
2021/12/28 09:14:10;;;;;;;36.83;10.73;;;6.50;99.90;;;;;;4758905;30;21468;-87
2021/12/28 09:16:36;;;;;;;28.05;10.77;;;6.50;99.90;;;;;;4744675;30;20047;-88
2021/12/28 09:19:03;;;;;;;29.83;10.95;;;6.50;99.90;;;;;;4760285;30;20428;-86
2021/12/28 09:21:28;;;;;;;31.30;10.38;;;6.60;99.90;;;;;;4760035;30;20068;-87
2021/12/28 09:23:54;;;;;;;36.40;10.63;;;6.60;99.90;;;;;;4742560;30;20048;-87
2021/12/28 09:26:20;;;;;;;32.10;10.50;;;6.60;99.90;;;;;;4760991;30;20097;-87
2021/12/28 09:28:46;;;;;;;27.15;11.15;;;6.60;99.90;;;;;;4730105;30;20186;-86
2021/12/28 09:31:12;;;;;;;37.00;10.55;;;6.60;99.90;;;;;;4763074;29;20592;-88
2021/12/28 09:33:38;;;;;;;31.02;10.93;;;6.60;99.90;;;;;;4729958;30;20058;-88
2021/12/28 09:36:16;;;;;;;39.47;11.15;;;6.70;99.90;;;;;;4741147;30;20289;-88
2021/12/28 09:38:44;;;;;;;35.88;10.95;;;6.70;99.90;;;;;;4761387;29;20070;-87
2021/12/28 09:41:10;;;;;;;35.28;12.02;;;6.70;99.90;;;;;;4748080;30;20051;-88
2021/12/28 09:43:37;;;;;;;25.70;10.18;;;6.80;99.90;;;;;;4738510;30;20040;-86
2021/12/28 09:46:03;;;;;;;28.48;10.35;;;6.80;99.90;;;;;;4765164;29;20048;-87
2021/12/28 09:48:28;;;;;;;29.67;10.35;;;6.80;99.90;;;;;;4744409;29;22325;-87
2021/12/28 09:50:54;;;;;;;33.55;9.85;;;6.80;99.90;;;;;;4727775;30;20100;-88
2021/12/28 09:53:21;;;;;;;28.58;10.40;;;6.80;99.90;;;;;;4757458;30;20047;-86
2021/12/28 09:55:47;;;;;;;42.67;11.15;;;6.80;99.90;;;;;;4738565;30;20056;-86
2021/12/28 09:58:12;;;;;;;33.38;9.85;;;6.90;99.90;;;;;;4744149;30;20126;-88
2021/12/28 10:00:38;;;;;;;37.42;9.60;;;6.90;99.90;;;;;;4751379;30;20057;-84
2021/12/28 10:03:04;;;;;;;32.30;10.25;;;7.00;99.90;;;;;;4746369;30;20051;-88
2021/12/28 10:05:31;;;;;;;31.75;9.18;;;7.00;99.90;;;;;;4732603;30;20496;-87
2021/12/28 10:07:59;;;;;;;34.50;9.63;;;7.00;99.90;;;;;;4747532;30;20043;-87
2021/12/28 10:10:26;;;;;;;30.77;9.50;;;7.10;99.90;;;;;;4728895;30;20083;-88
2021/12/28 10:12:58;;;;;;;32.70;8.90;;;7.10;99.90;;;;;;4757897;30;20087;-87
2021/12/28 10:15:29;;;;;;;30.33;9.63;;;7.20;99.90;;;;;;4749884;30;20058;-88
2021/12/28 10:17:59;;;;;;;27.73;8.73;;;7.20;99.90;;;;;;4739821;30;20097;-87
2021/12/28 10:20:27;;;;;;;29.98;8.38;;;7.20;99.90;;;;;;4759435;30;20109;-88
2021/12/28 10:22:58;;;;;;;32.85;9.40;;;7.30;99.90;;;;;;4746665;30;20055;-88
2021/12/28 10:25:30;;;;;;;31.73;9.32;;;7.30;99.90;;;;;;4761276;30;20138;-86
2021/12/28 10:28:00;;;;;;;25.87;8.40;;;7.40;99.90;;;;;;4767246;29;20127;-88
2021/12/28 10:30:32;;;;;;;29.15;9.25;;;7.40;99.90;;;;;;4786853;29;20316;-88
2021/12/28 10:33:04;;;;;;;24.92;9.75;;;7.40;99.90;;;;;;4762916;30;20109;-87
2021/12/28 10:35:34;;;;;;;33.38;9.38;;;7.40;99.90;;;;;;4743709;30;20093;-86
2021/12/28 10:38:11;;;;;;;24.55;8.82;;;7.50;99.90;;;;;;4755565;30;20047;-87
2021/12/28 10:41:04;;;;;;;24.42;9.07;;;7.50;99.90;;;;;;4760348;30;20105;-89
2021/12/28 10:43:45;;;;;;;33.80;10.23;;;7.50;99.90;;;;;;4767504;29;20302;-87
2021/12/28 10:46:14;;;;;;;28.92;9.98;;;7.50;99.90;;;;;;4752817;30;20040;-87
2021/12/28 10:49:06;;;;;;;39.80;11.07;;;7.50;99.90;;;;;;4769414;29;20050;-87
2021/12/28 10:51:39;;;;;;;29.67;10.17;;;7.50;99.90;;;;;;4743365;30;20130;-87
2021/12/28 10:56:42;;;;;;;33.90;10.38;;;7.50;99.90;;;;;;4757833;30;20058;-86
2021/12/28 10:59:10;;;;;;;40.33;11.53;;;7.50;99.90;;;;;;4757668;29;20396;-88
2021/12/28 11:01:38;;;;;;;35.58;11.20;;;7.50;99.90;;;;;;4749226;30;20312;-89
2021/12/28 11:04:09;;;;;;;46.88;12.23;;;7.50;99.90;;;;;;4752326;30;20039;-85
2021/12/28 11:06:44;;;;;;;44.78;12.27;;;7.50;99.90;;;;;;4762037;29;20043;-86
2021/12/28 11:18:30;;;;;;;39.55;12.10;;;7.60;99.90;;;;;;4776396;29;20046;-84
2021/12/28 11:20:58;;;;;;;41.30;12.15;;;7.60;99.90;;;;;;4769973;30;20597;-85
2021/12/28 11:23:28;;;;;;;37.35;12.57;;;7.60;99.90;;;;;;4770473;29;20056;-86
2021/12/28 11:26:05;;;;;;;41.10;12.23;;;7.60;99.90;;;;;;4775734;30;20503;-86
2021/12/28 11:28:32;;;;;;;36.78;12.43;;;7.60;99.90;;;;;;4758929;29;20089;-86
2021/12/28 11:31:12;;;;;;;44.03;12.68;;;7.70;99.90;;;;;;4760951;29;20506;-86
2021/12/28 11:34:07;;;;;;;47.40;13.30;;;7.70;99.90;;;;;;4762664;29;20055;-87
2021/12/28 11:36:41;;;;;;;39.13;13.13;;;7.70;99.90;;;;;;4750716;29;20051;-86
2021/12/28 11:39:12;;;;;;;38.75;14.32;;;7.70;99.90;;;;;;4761895;29;20387;-88
2021/12/28 11:41:38;;;;;;;40.13;15.25;;;7.70;99.90;;;;;;4757820;29;20522;-87
2021/12/28 11:44:05;;;;;;;57.25;16.73;;;7.70;99.90;;;;;;4749475;29;20130;-88
2021/12/28 11:46:43;;;;;;;47.75;16.25;;;7.80;99.90;;;;;;4746678;30;21256;-85
2021/12/28 11:49:14;;;;;;;42.55;15.77;;;7.80;99.90;;;;;;4741595;29;20132;-89
2021/12/28 11:51:41;;;;;;;42.65;15.50;;;7.80;99.90;;;;;;4748629;29;20052;-86
2021/12/28 11:54:10;;;;;;;36.53;15.80;;;7.80;99.90;;;;;;4774082;29;20039;-85
2021/12/28 11:56:44;;;;;;;44.72;17.08;;;7.80;99.90;;;;;;4759390;30;20040;-87
2021/12/28 11:59:16;;;;;;;45.03;17.27;;;7.80;99.90;;;;;;4760992;30;20039;-88
2021/12/28 12:01:51;;;;;;;77.40;17.60;;;7.80;99.90;;;;;;4756941;30;20043;-90
2021/12/28 12:04:32;;;;;;;42.78;16.73;;;7.80;99.90;;;;;;4756547;29;20246;-89
2021/12/28 12:07:13;;;;;;;55.92;17.25;;;7.80;99.90;;;;;;4756251;30;20062;-88
2021/12/28 12:09:51;;;;;;;46.58;18.20;;;7.90;99.90;;;;;;4773052;29;20055;-90
2021/12/28 12:12:30;;;;;;;40.83;17.63;;;7.90;99.90;;;;;;4759251;29;20085;-89
2021/12/28 12:14:58;;;;;;;41.65;17.15;;;7.90;99.90;;;;;;4757956;30;20079;-88
2021/12/28 12:17:39;;;;;;;48.15;16.63;;;7.90;99.90;;;;;;4764365;29;20059;-89
2021/12/28 12:20:24;;;;;;;44.53;16.17;;;8.00;99.90;;;;;;4782953;29;20134;-86
2021/12/28 12:23:12;;;;;;;44.33;16.95;;;8.00;99.90;;;;;;4765023;29;20192;-89
2021/12/28 12:25:50;;;;;;;45.08;18.23;;;7.90;99.90;;;;;;4766386;30;20047;-86
2021/12/28 12:28:40;;;;;;;46.10;17.73;;;8.00;99.90;;;;;;4761763;29;20088;-88
2021/12/28 12:31:19;;;;;;;40.42;18.10;;;8.00;99.90;;;;;;4759972;29;20512;-87
2021/12/28 12:33:45;;;;;;;41.75;18.75;;;8.00;99.90;;;;;;4775513;29;20050;-88
2021/12/28 12:36:21;;;;;;;34.17;18.88;;;8.00;99.90;;;;;;4741589;29;20050;-87
2021/12/28 12:38:47;;;;;;;46.45;19.58;;;8.00;99.90;;;;;;4761942;30;20127;-88
2021/12/28 12:41:37;;;;;;;78.97;22.80;;;8.00;99.90;;;;;;4759750;29;20070;-86
2021/12/28 12:44:20;;;;;;;51.00;20.05;;;8.00;99.90;;;;;;4789576;29;20138;-87
2021/12/28 12:46:47;;;;;;;143.18;23.98;;;8.10;99.90;;;;;;4760513;29;20092;-89
2021/12/28 12:49:19;;;;;;;44.88;20.05;;;8.10;99.90;;;;;;4756064;29;20138;-88
2021/12/28 12:51:46;;;;;;;50.33;21.50;;;8.10;99.90;;;;;;4753678;29;20055;-88
2021/12/28 12:54:22;;;;;;;45.15;22.05;;;8.10;99.90;;;;;;4761276;29;20510;-89
2021/12/28 12:57:09;;;;;;;48.55;22.35;;;8.00;99.90;;;;;;4762180;30;20054;-88
2021/12/28 12:59:45;;;;;;;42.90;20.77;;;8.00;99.90;;;;;;4763040;30;20403;-87
2021/12/28 13:02:20;;;;;;;42.10;20.70;;;8.00;99.90;;;;;;4759760;29;20059;-87
2021/12/28 13:04:49;;;;;;;55.50;21.77;;;8.10;99.90;;;;;;4758893;29;20047;-88
2021/12/28 13:07:18;;;;;;;40.38;21.00;;;8.10;99.90;;;;;;4763172;29;20134;-88
2021/12/28 13:09:45;;;;;;;42.92;21.83;;;8.10;99.90;;;;;;4761410;29;20047;-87
2021/12/28 13:12:14;;;;;;;42.85;21.00;;;8.10;99.90;;;;;;4758513;29;20795;-88
2021/12/28 13:14:40;;;;;;;56.92;22.90;;;8.10;99.90;;;;;;4759334;29;20051;-87
2021/12/28 13:17:14;;;;;;;46.53;22.35;;;8.10;99.90;;;;;;4760099;29;20043;-90
2021/12/28 13:19:55;;;;;;;48.13;21.73;;;8.10;99.90;;;;;;4758806;30;20562;-89
2021/12/28 13:22:21;;;;;;;42.92;21.95;;;8.10;99.90;;;;;;4749376;29;20051;-89
2021/12/28 13:24:47;;;;;;;49.75;21.75;;;8.10;99.90;;;;;;4747164;30;20138;-89
2021/12/28 13:27:17;;;;;;;63.38;23.40;;;8.00;99.90;;;;;;4744416;29;20162;-89
2021/12/28 13:29:43;;;;;;;48.13;21.95;;;8.00;99.90;;;;;;4744400;29;20056;-87
2021/12/28 13:32:18;;;;;;;60.83;22.65;;;8.00;99.90;;;;;;4741623;29;20051;-92